Terminal Aerodrome Forecast
Issued by NWS Quad Cities IA IL

Home | Current Version | Previous Version | Graphics & Text | Print | Product List | Glossary On
Versions: 1 2 3 4 5 6 7 8 9 10 11 12 13 14 15 16 17
474
FTUS43 KDVN 092053 AAA
TAFMLI
TAF AMD
KMLI 092053Z 0921/1018 29007KT P6SM SCT020 SCT150
      TEMPO 0921/0923 BKN020
     FM100100 VRB03KT P6SM OVC070
     FM101200 16004KT P6SM OVC070
     FM101700 15006KT P6SM OVC050=

USA.gov is the U.S. government's official web portal to all federal, state and local government web resources and services.